createdAt,value
2019-06-07T00:02:32.615Z,53.12
2019-06-07T00:05:09.802Z,53.96
2019-06-07T00:07:43.540Z,54.83
2019-06-07T00:10:34.979Z,53.86
2019-06-07T00:12:53.476Z,54.16
2019-06-07T00:15:29.055Z,54.37
2019-06-07T00:18:03.890Z,54.44
2019-06-07T00:20:38.273Z,54.50
2019-06-07T00:23:15.878Z,54.53
2019-06-07T00:25:48.514Z,54.58
2019-06-07T00:28:22.528Z,55.66
2019-06-07T00:30:56.709Z,55.69
2019-06-07T00:33:30.778Z,55.39
2019-06-07T00:36:05.118Z,55.43
2019-06-07T00:38:39.206Z,55.51
2019-06-07T00:41:15.012Z,55.01
2019-06-07T00:43:49.430Z,55.31
2019-06-07T00:46:25.425Z,55.34
2019-06-07T00:48:59.728Z,55.34
2019-06-07T00:51:49.487Z,56.69
2019-06-07T00:54:12.309Z,56.13
2019-06-07T00:56:46.578Z,56.21
2019-06-07T00:59:28.318Z,56.17
2019-06-07T01:01:57.050Z,56.25
2019-06-07T01:04:31.539Z,56.20
2019-06-07T01:07:05.766Z,56.26
2019-06-07T01:09:40.078Z,56.19
2019-06-07T01:12:14.796Z,56.45
2019-06-07T01:14:49.899Z,57.60
2019-06-07T01:17:43.761Z,56.46
2019-06-07T01:20:06.540Z,55.95
2019-06-07T01:22:40.685Z,55.66
2019-06-07T01:25:15.757Z,55.38
2019-06-07T01:27:50.329Z,55.60
2019-06-07T01:30:26.660Z,55.84
2019-06-07T01:33:01.376Z,56.00
2019-06-07T01:35:35.369Z,56.07
2019-06-07T01:38:09.719Z,57.30
2019-06-07T01:40:43.844Z,56.85
2019-06-07T01:43:19.560Z,56.73
2019-06-07T01:45:54.153Z,56.93
2019-06-07T01:48:47.996Z,57.03
2019-06-07T01:51:05.240Z,57.10
2019-06-07T01:53:39.631Z,57.14
2019-06-07T01:56:13.881Z,57.19
2019-06-07T01:58:48.202Z,57.25
2019-06-07T02:01:23.937Z,57.29
2019-06-07T02:03:58.379Z,57.39
2019-06-07T02:06:32.644Z,57.51
2019-06-07T02:09:08.164Z,57.60
2019-06-07T02:11:42.415Z,57.32
2019-06-07T02:14:16.788Z,57.58
2019-06-07T02:16:50.769Z,57.71
2019-06-07T02:19:27.461Z,57.80
2019-06-07T02:22:01.131Z,57.87
2019-06-07T02:24:36.458Z,57.96
2019-06-07T02:27:10.762Z,57.98
2019-06-07T02:29:45.413Z,59.20
2019-06-07T02:32:19.374Z,59.31
2019-06-07T02:34:53.786Z,60.08
2019-06-07T02:37:32.415Z,60.47
2019-06-07T02:40:04.309Z,58.72
2019-06-07T02:42:42.738Z,58.19
2019-06-07T02:45:14.832Z,57.93
2019-06-07T02:47:49.467Z,57.72
2019-06-07T02:50:26.251Z,57.45
2019-06-07T02:53:00.194Z,57.40
2019-06-07T02:56:25.947Z,57.27
2019-06-07T02:58:11.997Z,57.62
2019-06-07T03:01:06.522Z,58.00
2019-06-07T03:03:24.688Z,58.38
2019-06-07T03:05:59.529Z,59.57
2019-06-07T03:08:36.735Z,57.76
2019-06-07T03:11:11.870Z,56.01
2019-06-07T03:13:50.194Z,56.08
2019-06-07T03:16:31.317Z,56.87
2019-06-07T03:19:19.166Z,57.60
2019-06-07T03:21:55.706Z,58.26
2019-06-07T03:24:33.690Z,58.36
2019-06-07T03:29:43.590Z,58.11
2019-06-07T03:32:19.159Z,56.97
2019-06-07T03:34:53.297Z,56.52
2019-06-07T03:37:29.954Z,56.32
2019-06-07T03:40:04.366Z,56.31
2019-06-07T03:42:40.133Z,57.13
2019-06-07T03:45:14.681Z,56.87
2019-06-07T03:47:48.662Z,57.25
2019-06-07T03:50:22.795Z,57.67
2019-06-07T03:52:57.017Z,57.11
2019-06-07T03:55:34.874Z,57.06
2019-06-07T04:00:43.474Z,58.11
2019-06-07T04:03:32.910Z,58.49
2019-06-07T04:05:54.341Z,58.65
2019-06-07T04:08:30.869Z,58.75
2019-06-07T04:11:05.829Z,57.43
2019-06-07T04:13:42.943Z,56.42
2019-06-07T04:16:15.795Z,56.67
2019-06-07T04:18:49.986Z,56.21
2019-06-07T04:21:24.038Z,55.92
2019-06-07T04:23:58.232Z,55.93
2019-06-07T04:26:34.503Z,55.93
2019-06-07T04:29:32.184Z,55.84
2019-06-07T04:31:44.348Z,55.86
2019-06-07T04:34:18.543Z,55.69
2019-06-07T04:36:59.036Z,55.46
2019-06-07T04:39:34.037Z,55.26
2019-06-07T04:42:07.238Z,55.12
2019-06-07T04:44:42.827Z,55.19
2019-06-07T04:47:20.799Z,55.65
2019-06-07T04:49:55.152Z,56.20
2019-06-07T04:52:30.468Z,56.48
2019-06-07T04:55:05.282Z,56.58
2019-06-07T04:57:42.714Z,56.53
2019-06-07T05:00:46.579Z,57.70
2019-06-07T05:02:51.278Z,57.46
2019-06-07T05:05:25.272Z,60.11
2019-06-07T05:08:07.259Z,59.88
2019-06-07T05:10:38.796Z,59.79
2019-06-07T05:13:12.835Z,59.65
2019-06-07T05:15:46.797Z,59.45
2019-06-07T05:18:21.022Z,59.29
2019-06-07T05:20:55.216Z,59.08
2019-06-07T05:24:03.579Z,59.04
2019-06-07T05:26:06.423Z,61.05
2019-06-07T05:28:42.833Z,60.95
2019-06-07T05:31:16.622Z,60.58
2019-06-07T05:33:50.753Z,60.47
2019-06-07T05:36:24.877Z,60.42
2019-06-07T05:38:58.915Z,60.23
2019-06-07T05:41:34.157Z,60.34
2019-06-07T05:44:13.016Z,60.38
2019-06-07T05:46:47.156Z,60.23
2019-06-07T05:49:20.920Z,60.10
2019-06-07T05:51:54.813Z,59.95
2019-06-07T05:54:29.237Z,59.84
2019-06-07T05:57:03.502Z,59.73
2019-06-07T05:59:41.075Z,59.64
2019-06-07T06:02:22.264Z,59.63
2019-06-07T06:04:49.968Z,59.63
2019-06-07T06:07:24.034Z,59.75
2019-06-07T06:09:58.519Z,59.49
2019-06-07T06:12:38.212Z,59.35
2019-06-07T06:15:09.766Z,59.46
2019-06-07T06:17:47.958Z,59.54
2019-06-07T06:20:20.181Z,59.53
2019-06-07T06:22:54.233Z,59.51
2019-06-07T06:25:32.347Z,59.46
2019-06-07T06:28:11.573Z,59.33
2019-06-07T06:30:41.815Z,59.02
2019-06-07T06:33:33.182Z,59.06
2019-06-07T06:35:52.770Z,59.02
2019-06-07T06:38:26.917Z,58.90
2019-06-07T06:41:15.082Z,58.82
2019-06-07T06:47:36.007Z,58.54
2019-06-07T06:50:11.775Z,58.19
2019-06-07T06:52:48.495Z,58.19
2019-06-07T06:55:21.889Z,58.38
2019-06-07T06:57:56.652Z,58.25
2019-06-07T07:01:04.092Z,58.25
2019-06-07T07:06:24.611Z,58.01
2019-06-07T07:08:40.619Z,57.85
2019-06-07T07:11:14.676Z,57.75
2019-06-07T07:13:54.218Z,57.62
2019-06-07T07:16:28.154Z,57.58
2019-06-07T07:19:02.266Z,57.40
2019-06-07T07:21:36.539Z,57.31
2019-06-07T07:24:21.017Z,57.19
2019-06-07T07:26:48.712Z,57.02
2019-06-07T07:29:23.176Z,57.50
2019-06-07T07:31:57.530Z,57.37
2019-06-07T07:34:36.587Z,57.03
2019-06-07T07:37:07.837Z,57.15
2019-06-07T07:39:42.093Z,57.04
2019-06-07T07:42:21.483Z,56.94
2019-06-07T07:44:56.666Z,57.19
2019-06-07T07:47:30.938Z,57.54
2019-06-07T07:50:05.071Z,57.56
2019-06-07T07:52:39.416Z,57.51
2019-06-07T07:55:13.735Z,57.41
2019-06-07T07:57:49.460Z,57.33
2019-06-07T08:00:49.984Z,57.29
2019-06-07T08:03:04.348Z,57.18
2019-06-07T08:05:42.809Z,57.03
2019-06-07T08:08:13.444Z,56.87
2019-06-07T08:10:50.417Z,56.69
2019-06-07T08:13:26.988Z,56.45
2019-06-07T08:16:08.298Z,56.27
2019-06-07T08:18:36.714Z,56.19
2019-06-07T08:21:24.855Z,56.08
2019-06-07T08:23:48.225Z,55.76
2019-06-07T08:26:23.784Z,55.64
2019-06-07T08:29:02.321Z,55.51
2019-06-07T08:31:34.345Z,55.42
2019-06-07T08:34:08.830Z,55.30
2019-06-07T08:36:43.403Z,55.13
2019-06-07T08:39:17.560Z,55.10
2019-06-07T08:42:00.545Z,53.38
2019-06-07T08:44:27.594Z,50.01
2019-06-07T08:47:18.901Z,48.05
2019-06-07T08:49:38.883Z,47.34
2019-06-07T08:52:13.103Z,46.71
2019-06-07T08:54:47.925Z,45.81
2019-06-07T08:57:22.508Z,44.91
2019-06-07T09:00:05.943Z,44.07
2019-06-07T09:02:32.712Z,43.54
2019-06-07T09:05:13.353Z,43.38
2019-06-07T09:08:07.158Z,43.23
2019-06-07T09:10:25.967Z,43.29
2019-06-07T09:13:07.505Z,43.67
2019-06-07T09:15:37.125Z,43.78
2019-06-07T09:20:50.085Z,44.28
2019-06-07T09:23:24.254Z,44.37
2019-06-07T09:26:06.469Z,44.87
2019-06-07T09:28:35.721Z,45.30
2019-06-07T09:31:12.568Z,45.64
2019-06-07T09:33:47.054Z,46.10
2019-06-07T09:36:21.315Z,46.82
2019-06-07T09:38:58.693Z,47.09
2019-06-07T09:41:46.951Z,47.24
2019-06-07T09:44:21.468Z,47.19
2019-06-07T09:46:44.915Z,47.26
2019-06-07T09:49:31.531Z,47.25
2019-06-07T09:51:55.762Z,47.31
2019-06-07T09:55:03.713Z,47.30
2019-06-07T09:57:16.443Z,47.50
2019-06-07T09:59:42.769Z,47.58
2019-06-07T10:02:16.781Z,47.58
2019-06-07T10:04:51.188Z,47.93
2019-06-07T10:07:31.928Z,48.05
2019-06-07T10:10:22.871Z,48.55
2019-06-07T10:12:37.354Z,48.80
2019-06-07T10:15:12.023Z,49.08
2019-06-07T10:17:45.967Z,49.20
2019-06-07T10:20:20.607Z,49.36
2019-06-07T10:22:54.835Z,49.51
2019-06-07T10:25:29.158Z,49.57
2019-06-07T10:28:03.872Z,49.66
2019-06-07T10:30:38.451Z,49.37
2019-06-07T10:33:12.750Z,49.19
2019-06-07T10:35:47.914Z,49.15
2019-06-07T10:38:22.006Z,49.08
2019-06-07T10:40:56.383Z,49.27
2019-06-07T10:43:30.839Z,49.44
2019-06-07T10:46:05.716Z,49.53
2019-06-07T10:48:41.234Z,49.50
2019-06-07T10:51:15.714Z,49.54
2019-06-07T10:53:50.177Z,49.55
2019-06-07T10:56:25.280Z,49.61
2019-06-07T10:58:59.441Z,49.64
2019-06-07T11:01:33.708Z,49.76
2019-06-07T11:04:07.883Z,49.96
2019-06-07T11:06:42.843Z,49.34
2019-06-07T11:09:17.421Z,49.24
2019-06-07T11:11:51.617Z,49.18
2019-06-07T11:14:25.827Z,49.12
2019-06-07T11:17:00.132Z,49.21
2019-06-07T11:19:34.663Z,49.24
2019-06-07T11:22:10.108Z,51.75
2019-06-07T11:24:44.676Z,49.86
2019-06-07T11:27:19.331Z,50.02
2019-06-07T11:29:53.396Z,49.06
2019-06-07T11:32:27.747Z,48.73
2019-06-07T11:35:02.367Z,48.54
2019-06-07T11:37:36.750Z,48.65
2019-06-07T11:40:35.691Z,48.43
2019-06-07T11:42:48.990Z,48.83
2019-06-07T11:45:25.966Z,49.04
2019-06-07T11:48:01.042Z,49.30
2019-06-07T11:50:36.036Z,49.41
2019-06-07T11:53:12.578Z,49.59
2019-06-07T11:55:47.066Z,49.75
2019-06-07T11:58:21.908Z,49.65
2019-06-07T12:00:57.321Z,49.59
2019-06-07T12:03:31.541Z,49.61
2019-06-07T12:06:05.572Z,49.55
2019-06-07T12:08:39.707Z,49.65
2019-06-07T12:11:14.364Z,49.57
2019-06-07T12:13:48.685Z,49.67
2019-06-07T12:16:23.791Z,49.76
2019-06-07T12:18:57.976Z,49.62
2019-06-07T12:21:32.122Z,49.63
2019-06-07T12:24:06.530Z,49.89
2019-06-07T12:26:40.797Z,50.14
2019-06-07T12:29:14.991Z,50.22
2019-06-07T12:31:49.137Z,50.61
2019-06-07T12:34:23.272Z,50.43
2019-06-07T12:36:57.283Z,50.18
2019-06-07T12:39:31.688Z,50.43
2019-06-07T12:42:05.671Z,50.81
2019-06-07T12:44:39.838Z,51.93
2019-06-07T12:47:14.992Z,51.28
2019-06-07T12:49:52.395Z,49.83
2019-06-07T12:52:26.471Z,49.18
2019-06-07T12:55:00.727Z,48.99
2019-06-07T12:57:34.946Z,48.98
2019-06-07T13:00:11.181Z,48.95
2019-06-07T13:02:45.412Z,49.50
2019-06-07T13:05:20.002Z,48.46
2019-06-07T13:07:54.301Z,47.48
2019-06-07T13:10:28.634Z,47.32
2019-06-07T13:13:02.771Z,47.53
2019-06-07T13:15:36.697Z,47.77
2019-06-07T13:18:14.846Z,47.91
2019-06-07T13:20:46.949Z,48.16
2019-06-07T13:23:22.654Z,48.30
2019-06-07T13:25:56.855Z,48.70
2019-06-07T13:28:31.755Z,48.70
2019-06-07T13:31:06.118Z,48.71
2019-06-07T13:33:40.199Z,48.81
2019-06-07T13:36:14.386Z,48.91
2019-06-07T13:38:48.687Z,49.61
2019-06-07T13:41:36.330Z,50.14
2019-06-07T13:43:58.772Z,50.24
2019-06-07T13:46:34.105Z,50.24
2019-06-07T13:49:08.447Z,50.72
2019-06-07T13:51:42.537Z,50.72
2019-06-07T13:54:16.609Z,50.83
2019-06-07T13:57:02.254Z,51.08
2019-06-07T13:59:28.558Z,51.03
2019-06-07T14:02:02.844Z,51.54
2019-06-07T14:04:37.140Z,52.36
2019-06-07T14:07:11.470Z,52.86
2019-06-07T14:09:45.771Z,52.77
2019-06-07T14:12:22.093Z,52.79
2019-06-07T14:14:56.226Z,52.68
2019-06-07T14:17:31.001Z,52.69
2019-06-07T14:20:07.167Z,52.81
2019-06-07T14:22:41.327Z,52.80
2019-06-07T14:25:15.479Z,52.90
2019-06-07T14:27:49.721Z,53.02
2019-06-07T14:30:24.289Z,53.07
2019-06-07T14:32:58.547Z,53.12
2019-06-07T14:35:33.719Z,53.21
2019-06-07T14:38:08.091Z,53.33
2019-06-07T14:40:42.367Z,53.32
2019-06-07T14:43:16.664Z,53.43
2019-06-07T14:45:51.730Z,53.46
2019-06-07T14:48:25.944Z,53.50
2019-06-07T14:51:00.300Z,53.50
2019-06-07T14:53:35.087Z,53.58
2019-06-07T14:56:09.324Z,53.67
2019-06-07T14:58:43.742Z,53.70
2019-06-07T15:01:17.664Z,53.73
2019-06-07T15:03:51.775Z,53.76
2019-06-07T15:06:26.773Z,53.79
2019-06-07T15:09:01.049Z,53.86
2019-06-07T15:11:36.874Z,53.89
2019-06-07T15:14:11.241Z,54.08
2019-06-07T15:16:45.573Z,55.27
2019-06-07T15:19:19.760Z,55.68
2019-06-07T15:21:53.749Z,55.37
2019-06-07T15:24:28.145Z,55.43
2019-06-07T15:27:02.501Z,55.43
2019-06-07T15:29:37.902Z,55.41
2019-06-07T15:32:12.644Z,55.45
2019-06-07T15:34:46.919Z,55.51
2019-06-07T15:37:21.118Z,55.50
2019-06-07T15:39:55.082Z,55.54
2019-06-07T15:42:43.942Z,55.50
2019-06-07T15:45:05.840Z,55.52
2019-06-07T15:47:40.620Z,55.84
2019-06-07T15:50:16.799Z,50.41
2019-06-07T15:52:50.876Z,47.33
2019-06-07T15:55:25.827Z,45.50
2019-06-07T15:57:59.918Z,44.12
2019-06-07T16:00:35.449Z,42.94
2019-06-07T16:03:10.001Z,42.09
2019-06-07T16:05:44.473Z,41.54
2019-06-07T16:08:18.736Z,40.98
2019-06-07T16:10:53.178Z,41.16
2019-06-07T16:13:27.598Z,42.78
2019-06-07T16:16:01.857Z,41.69
2019-06-07T16:18:37.657Z,41.61
2019-06-07T16:21:12.119Z,41.49
2019-06-07T16:23:46.749Z,41.35
2019-06-07T16:26:21.323Z,41.20
2019-06-07T16:28:57.322Z,41.33
2019-06-07T16:31:31.647Z,41.33
2019-06-07T16:34:05.916Z,41.22
2019-06-07T16:36:40.355Z,41.43
2019-06-07T16:39:14.771Z,41.59
2019-06-07T16:41:49.427Z,41.66
2019-06-07T16:44:23.641Z,41.80
2019-06-07T16:46:57.832Z,41.93
2019-06-07T16:49:32.510Z,41.94
2019-06-07T16:52:06.964Z,42.05
2019-06-07T16:54:41.459Z,42.39
2019-06-07T16:57:15.691Z,42.10
2019-06-07T16:59:50.879Z,42.75
2019-06-07T17:02:25.499Z,42.67
2019-06-07T17:04:59.689Z,43.03
2019-06-07T17:07:34.203Z,42.98
2019-06-07T17:10:09.140Z,42.71
2019-06-07T17:12:44.827Z,42.51
2019-06-07T17:15:20.150Z,42.50
2019-06-07T17:17:54.253Z,42.66
2019-06-07T17:20:28.865Z,42.83
2019-06-07T17:23:02.905Z,46.59
2019-06-07T17:25:37.111Z,45.53
2019-06-07T17:28:12.264Z,44.81
2019-06-07T17:30:48.066Z,44.38
2019-06-07T17:33:22.467Z,43.97
2019-06-07T17:35:56.405Z,43.90
2019-06-07T17:38:31.458Z,43.84
2019-06-07T17:41:05.735Z,43.79
2019-06-07T17:43:50.458Z,43.94
2019-06-07T17:46:15.678Z,44.31
2019-06-07T17:48:49.815Z,44.68
2019-06-07T17:51:24.157Z,44.94
2019-06-07T17:53:58.321Z,45.01
2019-06-07T17:56:32.520Z,45.22
2019-06-07T17:59:06.643Z,45.27
2019-06-07T18:01:41.912Z,45.59
2019-06-07T18:04:17.305Z,45.79
2019-06-07T18:06:51.578Z,46.01
2019-06-07T18:09:27.396Z,46.21
2019-06-07T18:12:01.322Z,46.49
2019-06-07T18:14:35.715Z,46.75
2019-06-07T18:17:09.850Z,47.02
2019-06-07T18:19:45.273Z,47.15
2019-06-07T18:22:19.517Z,47.35
2019-06-07T18:24:54.703Z,47.47
2019-06-07T18:27:28.767Z,47.75
2019-06-07T18:30:11.442Z,47.73
2019-06-07T18:32:38.506Z,47.72
2019-06-07T18:35:12.592Z,47.83
2019-06-07T18:37:47.054Z,47.36
2019-06-07T18:40:21.127Z,46.98
2019-06-07T18:42:55.424Z,46.96
2019-06-07T18:45:29.581Z,46.89
2019-06-07T18:48:06.903Z,46.91
2019-06-07T18:50:41.193Z,46.85
2019-06-07T18:53:16.300Z,46.79
2019-06-07T18:55:52.160Z,46.87
2019-06-07T18:58:26.653Z,46.96
2019-06-07T19:01:00.801Z,47.02
2019-06-07T19:03:34.786Z,47.08
2019-06-07T19:06:09.495Z,47.14
2019-06-07T19:08:43.480Z,47.25
2019-06-07T19:11:17.574Z,47.37
2019-06-07T19:13:52.947Z,47.30
2019-06-07T19:16:28.141Z,47.80
2019-06-07T19:19:02.420Z,48.18
2019-06-07T19:21:36.552Z,48.45
2019-06-07T19:24:10.613Z,48.54
2019-06-07T19:26:44.599Z,48.90
2019-06-07T19:29:18.759Z,49.20
2019-06-07T19:31:52.996Z,49.42
2019-06-07T19:34:26.984Z,49.70
2019-06-07T19:37:02.123Z,49.83
2019-06-07T19:39:36.747Z,49.86
2019-06-07T19:42:10.888Z,50.01
2019-06-07T19:44:54.301Z,50.10
2019-06-07T19:47:21.080Z,50.09
2019-06-07T19:49:56.613Z,50.08
2019-06-07T19:52:31.703Z,50.15
2019-06-07T19:55:09.892Z,50.22
2019-06-07T19:57:42.766Z,50.52
2019-06-07T20:00:17.226Z,51.02
2019-06-07T20:02:51.415Z,51.28
2019-06-07T20:05:25.356Z,50.87
2019-06-07T20:08:00.600Z,51.93
2019-06-07T20:10:35.339Z,52.08
2019-06-07T20:13:09.568Z,51.14
2019-06-07T20:15:44.816Z,50.54
2019-06-07T20:18:18.672Z,50.51
2019-06-07T20:20:52.815Z,50.45
2019-06-07T20:23:29.796Z,50.53
2019-06-07T20:26:04.798Z,50.43
2019-06-07T20:28:39.852Z,50.39
2019-06-07T20:31:14.198Z,50.36
2019-06-07T20:33:48.506Z,50.53
2019-06-07T20:36:22.466Z,50.97
2019-06-07T20:38:57.947Z,52.15
2019-06-07T20:41:33.535Z,51.95
2019-06-07T20:44:08.067Z,52.60
2019-06-07T20:46:45.399Z,53.04
2019-06-07T20:49:19.791Z,52.12
2019-06-07T20:51:53.793Z,51.27
2019-06-07T20:54:27.865Z,51.00
2019-06-07T20:57:02.665Z,50.95
2019-06-07T20:59:36.873Z,50.79
2019-06-07T21:02:11.861Z,51.17
2019-06-07T21:04:48.206Z,51.93
2019-06-07T21:07:22.375Z,52.65
2019-06-07T21:09:56.677Z,53.35
2019-06-07T21:12:30.619Z,52.83
2019-06-07T21:15:09.713Z,51.02
2019-06-07T21:17:41.319Z,49.46
2019-06-07T21:20:15.807Z,48.50
2019-06-07T21:22:49.959Z,48.21
2019-06-07T21:25:24.207Z,48.26
2019-06-07T21:27:58.306Z,48.28
2019-06-07T21:30:32.576Z,48.65
2019-06-07T21:33:07.893Z,49.05
2019-06-07T21:35:42.134Z,49.28
2019-06-07T21:38:16.112Z,49.45
2019-06-07T21:40:50.300Z,49.84
2019-06-07T21:43:24.517Z,49.63
2019-06-07T21:46:05.532Z,49.51
2019-06-07T21:48:34.606Z,49.51
2019-06-07T21:51:08.692Z,48.57
2019-06-07T21:53:42.832Z,49.34
2019-06-07T21:56:17.035Z,49.45
2019-06-07T21:58:51.643Z,49.55
2019-06-07T22:01:30.818Z,49.52
2019-06-07T22:04:05.455Z,49.47
2019-06-07T22:06:39.748Z,49.25
2019-06-07T22:09:14.669Z,49.20
2019-06-07T22:11:48.631Z,49.09
2019-06-07T22:14:22.832Z,49.09
2019-06-07T22:16:56.979Z,49.09
2019-06-07T22:19:31.175Z,49.10
2019-06-07T22:22:07.150Z,48.29
2019-06-07T22:24:41.279Z,48.98
2019-06-07T22:27:15.681Z,48.78
2019-06-07T22:29:50.246Z,48.77
2019-06-07T22:32:24.548Z,48.75
2019-06-07T22:34:58.857Z,48.81
2019-06-07T22:37:32.985Z,48.73
2019-06-07T22:40:08.520Z,48.58
2019-06-07T22:42:42.740Z,48.80
2019-06-07T22:45:17.156Z,48.80
2019-06-07T22:47:51.422Z,48.68
2019-06-07T22:50:26.527Z,48.58
2019-06-07T22:53:00.478Z,48.19
2019-06-07T22:55:34.573Z,48.80
2019-06-07T22:58:09.989Z,48.68
2019-06-07T23:00:44.175Z,48.60
2019-06-07T23:03:19.096Z,48.87
2019-06-07T23:05:53.324Z,48.61
2019-06-07T23:08:27.229Z,48.71
2019-06-07T23:11:01.272Z,48.59
2019-06-07T23:13:35.492Z,48.75
2019-06-07T23:16:11.381Z,48.63
2019-06-07T23:18:45.519Z,48.77
2019-06-07T23:21:20.123Z,48.62
2019-06-07T23:23:54.613Z,48.76
2019-06-07T23:26:28.517Z,48.59
2019-06-07T23:29:02.790Z,48.35
2019-06-07T23:31:36.890Z,48.23
2019-06-07T23:34:11.086Z,48.33
2019-06-07T23:36:45.312Z,48.51
2019-06-07T23:39:22.032Z,48.83
2019-06-07T23:41:55.033Z,48.77
2019-06-07T23:44:29.196Z,49.01
2019-06-07T23:47:11.189Z,49.07
2019-06-07T23:49:39.529Z,49.01
2019-06-07T23:52:13.901Z,49.06
2019-06-07T23:54:48.063Z,49.38
2019-06-07T23:57:22.704Z,49.62
2019-06-07T23:59:56.873Z,50.17
